Pelican, Alaska
Current Conditions -  °F | °C
As of 10:56 AM on Thursday 23 Oct 2014 (Local Time) from PAOH Reporting Station
Scattered Clouds Scattered Clouds  
Wind Chill: 39°   Ceiling: Unl
Heat Index: 39°   Visibility: 8mi
Dew Point: 39°   Wind: 0mph
Humidity: 100%   Direction: NA
Pressure: 29.59"   Gusts: NA
Location:  57.96°N, 136.23°W
Report Text: PAOH 231856Z AUTO 00000KT 8SM FEW020 SCT042 04/04 A2959 RMK AO2 TSNO T00380038 UPE28RAB26E53 P0000 SLP021 $
Loading
Personal Weather Stations






























Interactive Weather Map
Tropical Storm Tracking
New forecast layout! Learn more

10-Day Weather Forecast

Advertisements
Track Severe Weather on mobile